Time;durP1;ratioP1;P1;durP2;ratioP2;P2;SDS_P1;SDS_P2;PMS_P1;PMS_P2;Temp;Humidity;BMP_temperature;BMP_pressure;BME280_temperature;BME280_humidity;BME280_pressure;Samples;Min_cycle;Max_cycle;Signal;HPM_P1;HPM_P2
2022/01/19 00:02:01;0.00;0.00;0.62;0.00;0.00;0.62;1.30;0.90;;;22.50;29.70;;;;;;2245668;61;20748;-59
2022/01/19 00:04:45;0.00;0.00;0.62;0.00;0.00;0.62;2.73;1.20;;;22.50;29.70;;;;;;2245418;61;20357;-61
2022/01/19 00:07:30;0.00;0.00;0.62;0.00;0.00;0.62;2.10;1.30;;;22.50;29.70;;;;;;2245607;61;20365;-61
2022/01/19 00:10:19;0.00;0.00;0.62;0.00;0.00;0.62;2.57;1.40;;;22.40;29.70;;;;;;2245909;61;20474;-59
2022/01/19 00:13:03;0.00;0.00;0.62;0.00;0.00;0.62;2.00;1.27;;;22.40;29.60;;;;;;2245727;61;20439;-60
2022/01/19 00:15:49;0.00;0.00;0.62;0.00;0.00;0.62;2.30;1.77;;;22.40;29.70;;;;;;2245418;61;20570;-60
2022/01/19 00:18:34;0.00;0.00;0.62;0.00;0.00;0.62;3.50;1.67;;;22.40;29.70;;;;;;2245735;61;20365;-60
2022/01/19 00:21:19;0.00;0.00;0.62;0.00;0.00;0.62;2.33;2.10;;;22.40;29.70;;;;;;2245677;61;20381;-60
2022/01/19 00:24:06;0.00;0.00;0.62;0.00;0.00;0.62;3.63;2.00;;;22.40;29.60;;;;;;2245600;61;20365;-61
2022/01/19 00:26:50;0.00;0.00;0.62;0.00;0.00;0.62;3.23;2.03;;;22.40;29.50;;;;;;2245427;61;20435;-61
2022/01/19 00:29:35;0.00;0.00;0.62;0.00;0.00;0.62;4.23;3.20;;;22.40;29.50;;;;;;2245711;61;20464;-61
2022/01/19 00:32:23;0.00;0.00;0.62;0.00;0.00;0.62;5.40;2.90;;;22.40;29.50;;;;;;2246170;61;20429;-62
2022/01/19 00:35:10;0.00;0.00;0.62;0.00;0.00;0.62;3.80;2.70;;;22.30;29.30;;;;;;2245570;61;20369;-60
2022/01/19 00:37:55;0.00;0.00;0.62;0.00;0.00;0.62;4.50;2.50;;;22.30;29.30;;;;;;2244930;61;20397;-61
2022/01/19 00:40:40;0.00;0.00;0.62;0.00;0.00;0.62;3.47;2.70;;;22.30;29.20;;;;;;2245111;61;20390;-60
2022/01/19 00:43:25;0.00;0.00;0.62;0.00;0.00;0.62;3.70;2.83;;;22.30;29.20;;;;;;2245404;61;20587;-60
2022/01/19 00:46:09;0.00;0.00;0.62;0.00;0.00;0.62;7.67;3.70;;;22.30;29.10;;;;;;2245374;61;20398;-60
2022/01/19 00:48:55;0.00;0.00;0.62;0.00;0.00;0.62;4.37;2.90;;;22.30;29.10;;;;;;2245077;61;20390;-61
2022/01/19 00:51:40;0.00;0.00;0.62;0.00;0.00;0.62;3.90;3.10;;;22.20;29.00;;;;;;2245548;61;20386;-59
2022/01/19 00:54:24;0.00;0.00;0.62;0.00;0.00;0.62;5.70;3.63;;;22.20;28.90;;;;;;2246072;61;20729;-60
2022/01/19 00:57:09;0.00;0.00;0.62;0.00;0.00;0.62;5.00;3.37;;;22.20;28.90;;;;;;2245094;61;20713;-61
2022/01/19 00:59:55;0.00;0.00;0.62;0.00;0.00;0.62;7.23;3.40;;;22.20;28.80;;;;;;2244679;61;20725;-60
2022/01/19 01:02:40;0.00;0.00;0.62;0.00;0.00;0.62;7.27;4.03;;;22.20;28.80;;;;;;2245040;61;20385;-60
2022/01/19 01:05:26;0.00;0.00;0.62;0.00;0.00;0.62;5.53;4.00;;;22.10;28.70;;;;;;2245626;61;20365;-60
2022/01/19 01:08:11;0.00;0.00;0.62;0.00;0.00;0.62;5.20;4.03;;;22.10;28.70;;;;;;2245179;61;20369;-61
2022/01/19 01:10:56;0.00;0.00;0.62;0.00;0.00;0.62;4.17;3.77;;;22.10;28.60;;;;;;2244480;61;20425;-60
2022/01/19 01:17:08;0.00;0.00;0.62;0.00;0.00;0.62;4.90;3.77;;;22.10;28.60;;;;;;2245441;61;20367;-60
2022/01/19 01:19:46;0.00;0.00;0.62;0.00;0.00;0.62;5.40;4.30;;;22.10;28.60;;;;;;2244783;61;20890;-61
2022/01/19 01:22:32;0.00;0.00;0.62;0.00;0.00;0.62;5.00;3.50;;;22.00;28.50;;;;;;2244478;61;20458;-60
2022/01/19 01:25:17;0.00;0.00;0.62;0.00;0.00;0.62;5.87;4.30;;;22.00;28.50;;;;;;2245018;61;20380;-60
2022/01/19 01:28:01;0.00;0.00;0.62;0.00;0.00;0.62;5.07;4.07;;;22.00;29.00;;;;;;2245283;61;20717;-60
2022/01/19 01:30:46;0.00;0.00;0.62;0.00;0.00;0.62;6.07;3.70;;;22.00;28.40;;;;;;2244744;61;20470;-60
2022/01/19 01:33:30;0.00;0.00;0.62;0.00;0.00;0.62;5.13;3.50;;;22.00;28.40;;;;;;2244392;61;20362;-60
2022/01/19 01:36:15;0.00;0.00;0.62;0.00;0.00;0.62;4.97;3.60;;;22.00;28.30;;;;;;2245345;61;20617;-60
2022/01/19 01:39:02;0.00;0.00;0.62;0.00;0.00;0.62;7.50;4.37;;;22.00;28.30;;;;;;2228463;61;1048864;-61
2022/01/19 01:41:46;0.00;0.00;0.62;0.00;0.00;0.62;6.47;4.13;;;21.90;28.20;;;;;;2245342;61;20620;-60
2022/01/19 01:44:38;0.00;0.00;0.62;0.00;0.00;0.62;5.40;3.93;;;21.90;28.20;;;;;;2245275;61;20365;-60
2022/01/19 01:47:23;0.00;0.00;0.62;0.00;0.00;0.62;5.23;3.80;;;21.90;28.10;;;;;;2245098;61;20366;-60
2022/01/19 01:56:03;0.00;0.00;0.62;0.00;0.00;0.62;7.13;4.80;;;21.90;28.00;;;;;;2244757;61;20364;-61
2022/01/19 01:58:49;0.00;0.00;0.62;0.00;0.00;0.62;5.57;4.47;;;21.90;27.90;;;;;;2244670;61;20366;-60
2022/01/19 02:01:49;0.00;0.00;0.62;0.00;0.00;0.62;7.20;4.70;;;21.80;27.90;;;;;;2245231;61;20409;-60
2022/01/19 02:04:40;0.00;0.00;0.62;0.00;0.00;0.62;7.07;4.60;;;21.80;27.90;;;;;;2245338;61;20380;-61
2022/01/19 02:07:43;0.00;0.00;0.62;0.00;0.00;0.62;6.50;4.40;;;21.80;27.90;;;;;;2244645;61;20362;-60
2022/01/19 02:10:41;0.00;0.00;0.62;0.00;0.00;0.62;4.87;4.37;;;21.70;28.30;;;;;;2244556;61;20361;-61
2022/01/19 02:16:45;0.00;0.00;0.62;0.00;0.00;0.62;6.70;4.17;;;21.70;27.80;;;;;;2245689;61;20365;-60
2022/01/19 02:22:37;0.00;0.00;0.62;0.00;0.00;0.62;5.93;4.53;;;21.70;27.80;;;;;;2244558;61;20437;-60
2022/01/19 02:25:27;0.00;0.00;0.62;0.00;0.00;0.62;5.70;4.10;;;21.70;27.80;;;;;;2245017;61;20365;-60
2022/01/19 02:40:32;0.00;0.00;0.62;0.00;0.00;0.62;7.87;4.87;;;21.60;27.70;;;;;;2244787;61;20381;-60
2022/01/19 02:43:23;0.00;0.00;0.62;0.00;0.00;0.62;7.00;4.20;;;21.60;27.70;;;;;;2244384;61;20489;-60
2022/01/19 02:49:16;0.00;0.00;0.62;0.00;0.00;0.62;7.67;5.00;;;21.60;27.70;;;;;;2245488;61;20396;-59
2022/01/19 02:52:01;0.00;0.00;0.62;0.00;0.00;0.62;5.10;4.60;;;21.60;27.70;;;;;;2244862;61;20434;-60
2022/01/19 02:54:47;0.00;0.00;0.62;0.00;0.00;0.62;6.10;5.03;;;21.50;27.70;;;;;;2245071;61;20739;-60
2022/01/19 02:57:35;0.00;0.00;0.62;0.00;0.00;0.62;6.03;4.30;;;21.50;27.70;;;;;;2245281;61;20373;-60
2022/01/19 03:09:11;0.00;0.00;0.62;0.00;0.00;0.62;5.00;4.50;;;21.40;27.60;;;;;;2244632;61;20505;-60
2022/01/19 03:11:56;0.00;0.00;0.62;0.00;0.00;0.62;8.33;5.03;;;21.40;27.60;;;;;;2245351;61;20389;-60
2022/01/19 03:14:42;0.00;0.00;0.62;0.00;0.00;0.62;6.73;4.90;;;21.40;27.60;;;;;;2244918;61;20429;-58
2022/01/19 03:17:27;0.00;0.00;0.62;0.00;0.00;0.62;6.73;4.90;;;21.40;27.60;;;;;;2244332;61;20409;-61
2022/01/19 03:20:13;0.00;0.00;0.62;0.00;0.00;0.62;6.77;4.60;;;21.30;27.50;;;;;;2244259;61;20369;-60
2022/01/19 03:23:04;0.00;0.00;0.62;0.00;0.00;0.62;5.63;4.40;;;21.40;27.60;;;;;;2244862;61;20405;-61
2022/01/19 03:25:51;0.00;0.00;0.62;0.00;0.00;0.62;6.47;4.77;;;21.30;27.50;;;;;;2244931;61;20446;-59
2022/01/19 03:28:36;0.00;0.00;0.62;0.00;0.00;0.62;8.57;4.73;;;21.30;27.50;;;;;;2244878;61;20469;-61
2022/01/19 03:31:23;0.00;0.00;0.62;0.00;0.00;0.62;5.97;4.33;;;21.30;27.50;;;;;;2244386;61;20389;-60
2022/01/19 03:34:07;0.00;0.00;0.62;0.00;0.00;0.62;6.47;4.60;;;21.30;27.50;;;;;;2244865;61;20372;-61
2022/01/19 03:36:52;0.00;0.00;0.62;0.00;0.00;0.62;5.80;4.50;;;21.20;27.40;;;;;;2245477;61;20773;-61
2022/01/19 03:39:37;0.00;0.00;0.62;0.00;0.00;0.62;7.00;5.37;;;21.20;27.40;;;;;;2244734;61;20376;-60
2022/01/19 03:42:23;0.00;0.00;0.62;0.00;0.00;0.62;7.77;5.23;;;21.20;27.40;;;;;;2245326;61;20392;-61
2022/01/19 03:45:10;0.00;0.00;0.62;0.00;0.00;0.62;5.70;4.80;;;21.20;27.40;;;;;;2245754;61;20574;-59
2022/01/19 03:48:09;0.00;0.00;0.62;0.00;0.00;0.62;6.50;4.90;;;21.20;27.40;;;;;;2245518;61;20365;-59
2022/01/19 03:50:54;0.00;0.00;0.62;0.00;0.00;0.62;5.37;4.20;;;21.10;27.40;;;;;;2245051;61;20661;-60
2022/01/19 03:53:39;0.00;0.00;0.62;0.00;0.00;0.62;6.50;4.43;;;21.10;27.40;;;;;;2245347;61;20410;-61
2022/01/19 03:56:24;0.00;0.00;0.62;0.00;0.00;0.62;5.90;4.50;;;21.10;27.90;;;;;;2245816;61;20756;-61
2022/01/19 03:59:08;0.00;0.00;0.62;0.00;0.00;0.62;6.07;4.80;;;21.10;27.40;;;;;;2245505;61;20397;-60
2022/01/19 04:01:53;0.00;0.00;0.62;0.00;0.00;0.62;5.30;4.53;;;21.10;27.40;;;;;;2245257;61;20385;-58
2022/01/19 04:04:55;0.00;0.00;0.62;0.00;0.00;0.62;6.13;4.50;;;21.00;27.30;;;;;;2244947;61;20466;-60
2022/01/19 04:07:39;0.00;0.00;0.62;0.00;0.00;0.62;5.67;4.73;;;21.00;27.30;;;;;;2245670;61;20377;-61
2022/01/19 04:10:23;0.00;0.00;0.62;0.00;0.00;0.62;5.10;3.70;;;21.00;27.30;;;;;;2245402;61;20420;-59
2022/01/19 04:13:22;0.00;0.00;0.62;0.00;0.00;0.62;6.53;4.83;;;21.00;27.30;;;;;;2245002;61;20365;-61
2022/01/19 04:16:07;0.00;0.00;0.62;0.00;0.00;0.62;8.07;4.20;;;21.00;27.30;;;;;;2245080;61;20653;-60
2022/01/19 04:19:01;0.00;0.00;0.62;0.00;0.00;0.62;6.40;4.63;;;20.90;27.20;;;;;;2245920;61;20366;-58
2022/01/19 04:21:47;0.00;0.00;0.62;0.00;0.00;0.62;6.50;4.30;;;20.90;27.20;;;;;;2245550;61;20433;-60
2022/01/19 04:24:32;0.00;0.00;0.62;0.00;0.00;0.62;6.87;4.60;;;20.90;27.20;;;;;;2245147;61;20361;-61
2022/01/19 04:30:14;0.00;0.00;0.62;0.00;0.00;0.62;6.00;4.10;;;20.80;27.20;;;;;;2244981;61;20397;-60
2022/01/19 04:36:06;0.00;0.00;0.62;0.00;0.00;0.62;5.53;4.73;;;20.80;27.20;;;;;;2245449;61;20366;-59
2022/01/19 04:39:22;0.00;0.00;0.62;0.00;0.00;0.62;7.07;4.83;;;20.80;27.20;;;;;;2245150;61;20373;-60
2022/01/19 04:54:30;0.00;0.00;0.62;0.00;0.00;0.62;5.97;4.00;;;20.70;27.10;;;;;;2245115;61;20365;-59
2022/01/19 05:03:59;0.00;0.00;0.62;0.00;0.00;0.62;8.80;4.80;;;20.60;27.00;;;;;;2245293;61;20422;-61
2022/01/19 05:07:15;0.00;0.00;0.62;0.00;0.00;0.62;7.50;4.80;;;20.60;27.00;;;;;;2245151;61;20365;-59
2022/01/19 05:15:55;0.00;0.00;0.62;0.00;0.00;0.62;4.90;3.77;;;20.40;26.90;;;;;;2244778;61;20765;-60
2022/01/19 05:18:41;0.00;0.00;0.62;0.00;0.00;0.62;4.10;3.33;;;20.40;26.90;;;;;;2243020;61;20737;-60
2022/01/19 05:21:27;0.00;0.00;0.62;0.00;0.00;0.62;4.33;3.57;;;20.40;26.90;;;;;;2245057;61;20385;-60
2022/01/19 05:24:20;0.00;0.00;0.62;0.00;0.00;0.62;6.07;4.10;;;20.40;26.90;;;;;;2245703;61;20365;-60
2022/01/19 05:27:26;0.00;0.00;0.62;0.00;0.00;0.62;5.43;3.90;;;20.40;26.90;;;;;;2245220;61;20389;-60
2022/01/19 05:30:12;0.00;0.00;0.62;0.00;0.00;0.62;4.90;3.10;;;20.30;26.80;;;;;;2245238;61;20389;-60
2022/01/19 05:32:57;0.00;0.00;0.62;0.00;0.00;0.62;4.13;2.87;;;20.30;26.80;;;;;;2245355;61;20400;-60
2022/01/19 05:35:43;0.00;0.00;0.62;0.00;0.00;0.62;5.50;3.57;;;20.30;26.80;;;;;;2245400;61;20441;-59
2022/01/19 05:38:47;0.00;0.00;0.62;0.00;0.00;0.62;4.20;3.60;;;20.30;26.80;;;;;;2245414;61;20377;-60
2022/01/19 05:41:42;0.00;0.00;0.62;0.00;0.00;0.62;6.73;3.37;;;20.30;26.80;;;;;;2244488;61;20464;-61
2022/01/19 05:44:31;0.00;0.00;0.62;0.00;0.00;0.62;4.80;2.97;;;20.30;26.90;;;;;;2244970;61;20374;-61
2022/01/19 05:47:16;0.00;0.00;0.62;0.00;0.00;0.62;7.30;4.17;;;20.30;26.90;;;;;;2245301;61;20720;-61
2022/01/19 05:50:01;0.00;0.00;0.62;0.00;0.00;0.62;8.73;4.40;;;20.30;26.80;;;;;;2244836;61;20393;-60
2022/01/19 05:52:46;0.00;0.00;0.62;0.00;0.00;0.62;5.33;3.97;;;20.30;26.80;;;;;;2244689;61;20381;-61
2022/01/19 05:55:30;0.00;0.00;0.62;0.00;0.00;0.62;6.37;4.83;;;20.20;26.70;;;;;;2244651;61;20401;-59
2022/01/19 05:58:16;0.00;0.00;0.62;0.00;0.00;0.62;5.90;3.97;;;20.20;26.30;;;;;;2245011;61;20425;-60
2022/01/19 06:01:03;0.00;0.00;0.62;0.00;0.00;0.62;6.00;4.17;;;20.10;26.00;;;;;;2244726;61;20654;-61
2022/01/19 06:03:50;0.00;0.00;0.62;0.00;0.00;0.62;7.77;3.93;;;20.10;26.10;;;;;;2244580;61;20481;-58
2022/01/19 06:06:56;0.00;0.00;0.62;0.00;0.00;0.62;5.20;3.90;;;20.00;25.90;;;;;;2245328;61;20749;-60
2022/01/19 06:10:07;0.00;0.00;0.62;0.00;0.00;0.62;4.20;3.23;;;20.00;26.10;;;;;;2244873;61;20432;-61
2022/01/19 06:13:00;0.00;0.00;0.62;0.00;0.00;0.62;4.80;3.10;;;19.90;26.30;;;;;;2245148;61;20581;-60
2022/01/19 06:15:45;0.00;0.00;0.62;0.00;0.00;0.62;7.83;3.00;;;19.90;26.50;;;;;;2245322;61;20421;-61
2022/01/19 06:18:31;0.00;0.00;0.62;0.00;0.00;0.62;3.80;2.80;;;19.90;26.50;;;;;;2244523;61;20373;-61
2022/01/19 06:21:17;0.00;0.00;0.62;0.00;0.00;0.62;3.80;3.00;;;19.90;26.50;;;;;;2244695;61;20385;-58
2022/01/19 06:24:06;0.00;0.00;0.62;0.00;0.00;0.62;2.97;2.33;;;19.90;26.50;;;;;;2244989;61;20362;-60
2022/01/19 06:26:51;0.00;0.00;0.62;0.00;0.00;0.62;3.33;2.40;;;19.90;26.50;;;;;;2245106;61;20717;-60
2022/01/19 06:29:36;0.00;0.00;0.62;0.00;0.00;0.62;3.23;2.40;;;19.90;26.50;;;;;;2244574;61;20392;-59
2022/01/19 06:32:21;0.00;0.00;0.62;0.00;0.00;0.62;4.33;2.67;;;19.90;26.60;;;;;;2244502;61;20688;-60
2022/01/19 06:35:09;0.00;0.00;0.62;0.00;0.00;0.62;2.50;2.07;;;19.90;26.60;;;;;;2245157;61;20370;-60
2022/01/19 06:38:05;0.00;0.00;0.62;0.00;0.00;0.62;3.07;2.37;;;19.90;26.70;;;;;;2244688;61;20365;-61
2022/01/19 06:40:56;0.00;0.00;0.62;0.00;0.00;0.62;3.13;1.80;;;19.90;26.70;;;;;;2244314;61;20425;-59
2022/01/19 06:43:41;0.00;0.00;0.62;0.00;0.00;0.62;3.10;2.23;;;20.00;26.80;;;;;;2244686;61;20554;-60
2022/01/19 06:46:27;0.00;0.00;0.62;0.00;0.00;0.62;2.40;1.90;;;20.00;26.80;;;;;;2245050;61;20457;-60
2022/01/19 06:49:11;0.00;0.00;0.62;0.00;0.00;0.62;2.80;1.83;;;20.00;26.80;;;;;;2245008;61;20397;-60
2022/01/19 06:51:57;0.00;0.00;0.62;0.00;0.00;0.62;3.50;2.00;;;20.00;26.90;;;;;;2244396;61;20772;-60
2022/01/19 06:54:42;0.00;0.00;0.62;0.00;0.00;0.62;2.60;1.93;;;20.00;26.90;;;;;;2244620;61;20592;-61
2022/01/19 06:57:26;0.00;0.00;0.62;0.00;0.00;0.62;3.90;1.93;;;20.00;26.90;;;;;;2245080;61;20443;-61
2022/01/19 07:00:38;0.00;0.00;0.62;0.00;0.00;0.62;3.60;1.80;;;20.00;26.90;;;;;;2244801;61;20364;-60
2022/01/19 07:03:26;0.00;0.00;0.62;0.00;0.00;0.62;3.60;2.27;;;20.00;26.90;;;;;;2244557;61;20587;-59
2022/01/19 07:06:23;0.00;0.00;0.62;0.00;0.00;0.62;2.97;1.97;;;20.00;26.90;;;;;;2244934;61;20361;-61
2022/01/19 07:09:31;0.00;0.00;0.62;0.00;0.00;0.62;2.20;1.37;;;20.00;27.00;;;;;;2244272;61;20426;-59
2022/01/19 07:12:16;0.00;0.00;0.62;0.00;0.00;0.62;3.10;1.70;;;20.00;26.90;;;;;;2245242;61;20390;-60
2022/01/19 07:15:01;0.00;0.00;0.62;0.00;0.00;0.62;2.63;1.30;;;20.00;27.00;;;;;;2244693;61;20370;-59
2022/01/19 07:17:45;0.00;0.00;0.62;0.00;0.00;0.62;5.10;1.87;;;20.00;27.00;;;;;;2244454;61;20399;-61
2022/01/19 07:20:30;0.00;0.00;0.62;0.00;0.00;0.62;2.37;1.40;;;20.10;27.10;;;;;;2244273;61;20483;-60
2022/01/19 07:23:15;0.00;0.00;0.62;0.00;0.00;0.62;2.47;1.43;;;20.10;27.10;;;;;;2244881;61;20365;-61
2022/01/19 07:26:01;0.00;0.00;0.62;0.00;0.00;0.62;2.43;2.17;;;20.10;27.10;;;;;;2244913;61;20365;-61
2022/01/19 07:28:47;0.00;0.00;0.62;0.00;0.00;0.62;2.30;1.43;;;20.10;27.10;;;;;;2244182;61;20567;-60
2022/01/19 07:31:32;0.00;0.00;0.62;0.00;0.00;0.62;1.80;1.33;;;20.10;27.10;;;;;;2244564;61;20793;-60
2022/01/19 07:34:20;0.00;0.00;0.62;0.00;0.00;0.62;2.30;1.40;;;20.10;27.10;;;;;;2244960;61;20405;-59
2022/01/19 07:37:06;0.00;0.00;0.62;0.00;0.00;0.62;2.30;1.73;;;20.10;27.20;;;;;;2244703;61;20598;-60
2022/01/19 07:39:51;0.00;0.00;0.62;0.00;0.00;0.62;2.20;1.50;;;20.10;27.10;;;;;;2244417;61;20373;-60
2022/01/19 07:42:37;0.00;0.00;0.62;0.00;0.00;0.62;2.00;1.70;;;20.10;27.10;;;;;;2244887;61;20393;-61
2022/01/19 07:45:21;0.00;0.00;0.62;0.00;0.00;0.62;2.50;1.30;;;20.20;27.20;;;;;;2245810;61;20361;-61
2022/01/19 07:48:33;0.00;0.00;0.62;0.00;0.00;0.62;1.90;1.10;;;20.20;27.20;;;;;;2244857;61;20405;-61
2022/01/19 07:51:26;0.00;0.00;0.62;0.00;0.00;0.62;2.30;1.70;;;20.20;27.20;;;;;;2244490;61;20425;-60
2022/01/19 07:54:35;0.00;0.00;0.62;0.00;0.00;0.62;1.73;1.20;;;20.20;27.20;;;;;;2244516;61;20397;-61
2022/01/19 07:57:40;0.00;0.00;0.62;0.00;0.00;0.62;1.50;1.00;;;20.20;27.20;;;;;;2244299;61;20394;-60
2022/01/19 08:00:47;0.00;0.00;0.62;0.00;0.00;0.62;2.07;1.30;;;20.20;27.30;;;;;;2245264;61;20441;-59
2022/01/19 08:03:57;0.00;0.00;0.62;0.00;0.00;0.62;2.03;1.67;;;20.20;27.30;;;;;;2244581;61;20504;-60
2022/01/19 08:06:47;0.00;0.00;0.62;0.00;0.00;0.62;1.70;1.20;;;20.20;27.30;;;;;;2244820;61;20362;-60
2022/01/19 08:09:33;0.00;0.00;0.62;0.00;0.00;0.62;2.07;1.50;;;20.20;27.30;;;;;;2244585;61;20385;-60
2022/01/19 08:12:18;0.00;0.00;0.62;0.00;0.00;0.62;1.70;1.00;;;20.30;27.40;;;;;;2244393;61;20465;-61
2022/01/19 08:15:07;0.00;0.00;0.62;0.00;0.00;0.62;1.50;0.90;;;20.20;27.30;;;;;;2245090;61;20585;-61
2022/01/19 08:17:54;0.00;0.00;0.62;0.00;0.00;0.62;1.90;1.23;;;20.30;27.40;;;;;;2244569;61;20373;-61
2022/01/19 08:20:42;0.00;0.00;0.62;0.00;0.00;0.62;1.93;1.40;;;20.30;27.40;;;;;;2244656;61;20362;-57
2022/01/19 08:23:28;0.00;0.00;0.62;0.00;0.00;0.62;1.90;1.30;;;20.30;27.40;;;;;;2244794;61;20387;-59
2022/01/19 08:26:16;0.00;0.00;0.62;0.00;0.00;0.62;1.70;1.13;;;20.30;27.40;;;;;;2245463;61;20665;-59
2022/01/19 08:29:01;0.00;0.00;0.62;0.00;0.00;0.62;1.67;1.00;;;20.30;27.40;;;;;;2245336;61;20377;-59
2022/01/19 08:31:48;0.00;0.00;0.62;0.00;0.00;0.62;1.70;1.30;;;20.30;27.40;;;;;;2244674;61;20404;-59
2022/01/19 08:34:59;0.00;0.00;0.62;0.00;0.00;0.62;1.70;1.00;;;20.30;27.40;;;;;;2245780;61;20373;-62
2022/01/19 08:37:43;0.00;0.00;0.62;0.00;0.00;0.62;1.70;1.30;;;20.30;27.30;;;;;;2245555;61;20366;-57
2022/01/19 08:40:30;0.00;0.00;0.62;0.00;0.00;0.62;1.80;1.13;;;20.40;27.40;;;;;;2245348;61;20442;-60
2022/01/19 08:43:31;0.00;0.00;0.62;0.00;0.00;0.62;1.57;0.93;;;20.40;27.40;;;;;;2245205;61;20368;-61
2022/01/19 08:46:16;0.00;0.00;0.62;0.00;0.00;0.62;1.73;1.20;;;20.40;27.40;;;;;;2244875;61;20725;-59
2022/01/19 08:49:28;0.00;0.00;0.62;0.00;0.00;0.62;1.77;1.17;;;20.40;27.40;;;;;;2245422;61;20781;-60
2022/01/19 08:52:32;0.00;0.00;0.62;0.00;0.00;0.62;1.77;1.20;;;20.40;27.40;;;;;;2245745;61;20429;-60
2022/01/19 08:55:30;0.00;0.00;0.62;0.00;0.00;0.62;1.80;1.10;;;20.40;27.40;;;;;;2245759;61;20381;-60
2022/01/19 08:58:14;0.00;0.00;0.62;0.00;0.00;0.62;1.43;1.10;;;20.40;27.40;;;;;;2245594;61;20431;-60
2022/01/19 09:00:59;0.00;0.00;0.62;0.00;0.00;0.62;1.77;1.00;;;20.40;27.40;;;;;;2245135;61;20773;-60
2022/01/19 09:03:43;0.00;0.00;0.62;0.00;0.00;0.62;1.50;1.07;;;20.40;27.40;;;;;;2245551;61;20730;-59
2022/01/19 09:06:29;0.00;0.00;0.62;0.00;0.00;0.62;2.07;1.20;;;20.40;27.40;;;;;;2245813;61;20385;-60
2022/01/19 09:09:14;0.00;0.00;0.62;0.00;0.00;0.62;1.70;1.20;;;20.40;27.40;;;;;;2245285;61;20388;-61
2022/01/19 09:11:58;0.00;0.00;0.62;0.00;0.00;0.62;1.93;1.23;;;20.40;27.40;;;;;;2245385;61;20381;-61
2022/01/19 09:14:43;0.00;0.00;0.62;0.00;0.00;0.62;1.60;1.00;;;20.50;27.50;;;;;;2245654;61;20368;-60
2022/01/19 09:17:27;0.00;0.00;0.62;0.00;0.00;0.62;1.50;1.00;;;20.50;27.50;;;;;;2245766;61;20604;-59
2022/01/19 09:20:14;0.00;0.00;0.62;0.00;0.00;0.62;1.40;0.80;;;20.50;27.40;;;;;;2245278;61;20779;-61
2022/01/19 09:23:00;0.00;0.00;0.62;0.00;0.00;0.62;1.63;1.40;;;20.50;27.40;;;;;;2245014;61;20690;-59
2022/01/19 09:25:45;0.00;0.00;0.62;0.00;0.00;0.62;1.50;0.97;;;20.50;27.40;;;;;;2245256;61;20373;-61
2022/01/19 09:28:29;0.00;0.00;0.62;0.00;0.00;0.62;1.60;0.93;;;20.50;27.50;;;;;;2245659;61;20366;-60
2022/01/19 09:31:16;0.00;0.00;0.62;0.00;0.00;0.62;1.50;1.00;;;20.50;27.50;;;;;;2245203;61;20377;-60
2022/01/19 09:34:08;0.00;0.00;0.62;0.00;0.00;0.62;1.90;1.20;;;20.50;27.40;;;;;;2245046;61;20389;-60
2022/01/19 09:36:53;0.00;0.00;0.62;0.00;0.00;0.62;1.90;1.13;;;20.50;27.40;;;;;;2245213;61;20382;-61
2022/01/19 09:39:39;0.00;0.00;0.62;0.00;0.00;0.62;1.77;0.93;;;20.50;27.40;;;;;;2245475;61;20377;-61
2022/01/19 09:42:24;0.00;0.00;0.62;0.00;0.00;0.62;1.40;0.90;;;20.60;27.50;;;;;;2245025;61;20716;-58
2022/01/19 09:45:09;0.00;0.00;0.62;0.00;0.00;0.62;1.43;1.00;;;20.60;27.50;;;;;;2245351;61;20357;-59
2022/01/19 09:47:53;0.00;0.00;0.62;0.00;0.00;0.62;2.10;1.47;;;20.60;27.50;;;;;;2245645;61;20369;-60
2022/01/19 09:50:38;0.00;0.00;0.62;0.00;0.00;0.62;1.60;1.00;;;20.60;27.50;;;;;;2245290;61;20389;-58
2022/01/19 09:53:23;0.00;0.00;0.62;0.00;0.00;0.62;1.70;0.90;;;20.60;27.50;;;;;;2245351;61;20441;-59
2022/01/19 09:56:10;0.00;0.00;0.62;0.00;0.00;0.62;1.50;1.00;;;20.60;27.50;;;;;;2245153;61;20358;-61
2022/01/19 09:58:54;0.00;0.00;0.62;0.00;0.00;0.62;2.10;1.20;;;20.60;27.50;;;;;;2245375;61;20369;-61
2022/01/19 10:01:50;0.00;0.00;0.62;0.00;0.00;0.62;1.70;1.00;;;20.60;27.50;;;;;;2245413;61;20381;-61
2022/01/19 10:04:38;0.00;0.00;0.62;0.00;0.00;0.62;1.37;0.80;;;20.60;27.50;;;;;;2245190;61;20386;-57
2022/01/19 10:07:24;0.00;0.00;0.62;0.00;0.00;0.62;2.10;1.47;;;20.60;27.40;;;;;;2244717;61;20409;-60
2022/01/19 10:10:10;0.00;0.00;0.62;0.00;0.00;0.62;1.60;1.00;;;20.60;27.40;;;;;;2245456;61;20393;-59
2022/01/19 10:19:20;0.00;0.00;0.62;0.00;0.00;0.62;1.60;0.90;;;20.60;27.40;;;;;;2244920;61;20729;-61
2022/01/19 10:22:11;0.00;0.00;0.62;0.00;0.00;0.62;1.40;1.13;;;20.60;27.40;;;;;;2244941;61;20426;-60
2022/01/19 10:24:57;0.00;0.00;0.62;0.00;0.00;0.62;1.60;1.07;;;20.60;27.40;;;;;;2245488;61;20585;-59
2022/01/19 10:27:45;0.00;0.00;0.62;0.00;0.00;0.62;1.40;0.90;;;20.60;27.40;;;;;;2245666;61;20409;-60
2022/01/19 10:30:31;0.00;0.00;0.62;0.00;0.00;0.62;2.80;1.40;;;20.60;27.40;;;;;;2244908;61;20757;-60
2022/01/19 10:33:18;0.00;0.00;0.62;0.00;0.00;0.62;1.30;0.80;;;20.60;27.40;;;;;;2245175;61;20373;-60
2022/01/19 10:36:04;0.00;0.00;0.62;0.00;0.00;0.62;1.80;1.13;;;20.70;27.50;;;;;;2245464;61;20389;-59
2022/01/19 10:38:56;0.00;0.00;0.62;0.00;0.00;0.62;1.40;1.00;;;20.70;27.40;;;;;;2245327;61;20664;-61
2022/01/19 10:42:01;0.00;0.00;0.62;0.00;0.00;0.62;1.50;0.97;;;20.60;27.40;;;;;;2244972;61;20433;-60
2022/01/19 10:44:48;0.00;0.00;0.62;0.00;0.00;0.62;1.40;0.83;;;20.70;27.40;;;;;;2245014;61;20408;-59
2022/01/19 10:47:46;0.00;0.00;0.62;0.00;0.00;0.62;1.43;0.80;;;20.70;27.40;;;;;;2245111;61;20380;-61
2022/01/19 10:50:32;0.00;0.00;0.62;0.00;0.00;0.62;1.80;1.17;;;20.70;27.50;;;;;;2245445;61;20417;-60
2022/01/19 10:53:20;0.00;0.00;0.62;0.00;0.00;0.62;1.30;0.80;;;20.70;27.40;;;;;;2245355;61;20362;-60
2022/01/19 10:56:05;0.00;0.00;0.62;0.00;0.00;0.62;1.50;1.00;;;20.70;27.40;;;;;;2244911;61;20434;-60
2022/01/19 10:58:56;0.00;0.00;0.62;0.00;0.00;0.62;1.73;1.00;;;20.70;27.40;;;;;;2244916;61;20409;-60
2022/01/19 11:01:45;0.00;0.00;0.62;0.00;0.00;0.62;1.30;0.80;;;20.70;27.40;;;;;;2245178;61;20440;-61
2022/01/19 11:04:33;0.00;0.00;0.62;0.00;0.00;0.62;2.53;1.07;;;20.70;27.40;;;;;;2245161;61;20397;-58
2022/01/19 11:07:19;0.00;0.00;0.62;0.00;0.00;0.62;1.40;0.90;;;20.70;27.40;;;;;;2245186;61;20578;-61
2022/01/19 11:10:10;0.00;0.00;0.62;0.00;0.00;0.62;1.30;0.80;;;20.70;27.40;;;;;;2244976;61;20400;-61
2022/01/19 11:12:56;0.00;0.00;0.62;0.00;0.00;0.62;1.40;0.70;;;20.70;27.40;;;;;;2245374;61;20365;-60
2022/01/19 11:15:42;0.00;0.00;0.62;0.00;0.00;0.62;1.40;0.80;;;20.70;27.40;;;;;;2245243;61;20389;-61
2022/01/19 11:18:30;0.00;0.00;0.62;0.00;0.00;0.62;1.40;1.00;;;20.70;27.40;;;;;;2244847;61;20410;-58
2022/01/19 11:21:23;0.00;0.00;0.62;0.00;0.00;0.62;1.97;0.97;;;20.70;27.30;;;;;;2244701;61;20488;-58
2022/01/19 11:24:19;0.00;0.00;0.62;0.00;0.00;0.62;1.50;0.90;;;20.70;27.30;;;;;;2245258;61;20756;-59
2022/01/19 11:27:06;0.00;0.00;0.62;0.00;0.00;0.62;1.80;1.23;;;20.70;27.40;;;;;;2245444;61;20373;-59
2022/01/19 11:30:11;0.00;0.00;0.62;0.00;0.00;0.62;1.57;1.00;;;20.70;27.30;;;;;;2244773;61;20425;-61
2022/01/19 11:33:27;0.00;0.00;0.62;0.00;0.00;0.62;1.80;0.90;;;20.70;27.30;;;;;;2244425;61;20708;-59
2022/01/19 11:36:22;0.00;0.00;0.62;0.00;0.00;0.62;1.60;1.03;;;20.70;27.30;;;;;;2244871;61;20438;-62
2022/01/19 11:39:09;0.00;0.00;0.62;0.00;0.00;0.62;1.50;0.90;;;20.70;27.30;;;;;;2244935;61;20373;-57
2022/01/19 11:41:55;0.00;0.00;0.62;0.00;0.00;0.62;1.40;1.00;;;20.80;27.40;;;;;;2244451;61;20416;-59
2022/01/19 11:44:41;0.00;0.00;0.62;0.00;0.00;0.62;1.40;1.00;;;20.80;27.40;;;;;;2244678;61;20424;-61
2022/01/19 11:47:31;0.00;0.00;0.62;0.00;0.00;0.62;1.50;0.90;;;20.70;27.30;;;;;;2245405;61;20357;-60
2022/01/19 11:50:21;0.00;0.00;0.62;0.00;0.00;0.62;1.50;1.00;;;20.80;27.30;;;;;;2245340;61;20922;-59
2022/01/19 11:53:10;0.00;0.00;0.62;0.00;0.00;0.62;1.60;1.10;;;20.80;27.30;;;;;;2245824;61;20664;-58
2022/01/19 11:56:04;0.00;0.00;0.62;0.00;0.00;0.62;1.70;1.00;;;20.70;27.20;;;;;;2245265;61;20369;-60
2022/01/19 11:59:04;0.00;0.00;0.62;0.00;0.00;0.62;1.30;0.80;;;20.80;27.20;;;;;;2245076;61;20632;-59
2022/01/19 12:01:49;0.00;0.00;0.62;0.00;0.00;0.62;1.70;1.00;;;20.80;27.20;;;;;;2245835;61;20396;-61
2022/01/19 12:04:37;0.00;0.00;0.62;0.00;0.00;0.62;1.50;0.93;;;20.80;27.20;;;;;;2246138;61;20373;-59
2022/01/19 12:07:35;0.00;0.00;0.62;0.00;0.00;0.62;1.30;0.80;;;20.80;27.20;;;;;;2246233;61;20702;-59
2022/01/19 12:10:42;0.00;0.00;0.62;0.00;0.00;0.62;1.50;0.80;;;20.80;27.20;;;;;;2245516;61;20632;-60
2022/01/19 12:16:51;0.00;0.00;0.62;0.00;0.00;0.62;1.27;0.73;;;20.80;27.20;;;;;;2245945;61;20382;-60
2022/01/19 12:19:40;0.00;0.00;0.62;0.00;0.00;0.62;1.27;0.80;;;20.70;27.10;;;;;;2245718;61;20757;-60
2022/01/19 12:22:28;0.00;0.00;0.62;0.00;0.00;0.62;1.57;1.03;;;20.70;27.10;;;;;;2245801;61;20429;-61
2022/01/19 12:25:13;0.00;0.00;0.62;0.00;0.00;0.62;1.47;0.90;;;20.70;27.10;;;;;;2245716;61;20386;-60
2022/01/19 12:28:00;0.00;0.00;0.62;0.00;0.00;0.62;1.50;0.90;;;20.80;27.20;;;;;;2245410;61;20381;-61